Abbot, Maine
Current Conditions -  °F | °C
As of 3:35 AM on Saturday 20 Dec 2014 (Local Time) from KWVL Reporting Station
Clear Clear  
Wind Chill: -12°   Ceiling: Unl
Heat Index: -7°   Visibility: 10mi
Dew Point: -12°   Wind: 7mph
Humidity: 68%   Direction: 360°N
Pressure: 30.18"   Gusts: NA
Location:  44.94°N, 69.7°W
Report Text: KWVL 200835Z 36006KT 10SM CLR M07/M12 A3018 RMK AO1
Loading
Personal Weather Stations






























Interactive Weather Map New forecast layout! Learn more

10-Day Weather Forecast

Advertisements
Track Severe Weather on mobile